Sugarloaf Regional (B21)
Carrabassett, ME
Field Elevation: 885
Lat: 45°05.12N  Long: 70°12.98W
CTAF/Unicom Freq: 122.8000
   
    
Weather Advisories
10/21/2014 13:28 Z
Altimeter 30.06" Hg
Wind 130° @ 3 KT
Gusts --
Visibility 10 SM
Temperature 7° C (45° F)
Dewpoint 0° C (32° F)
Relative Humidity 63%
Density Altitude --
Condensation Altitude 4,200 feet
Wind Chill 6° C (43° F)
  Wind and Runways
Indicated Runway = 17
History
 
 
More Info
All DigiWx sites map
 
NOAA Forecast
 
Airport IQ 5010
(39N) Princeton, NJ
(PN44) Upper Gwynedd Heliport
 
about DigiWx
 
FAA Disclaimer: The data displayed is for advisory purposes only and is not to be used for flight planning or operations. For official data, please call (not available) to hear the current automated AWOS voice message.
  METAR B21 211328Z AUTO 13003KT 10SM 07/00 A3006